createdAt,value
2023-02-09T00:00:03.126Z,-3.56
2023-02-09T00:16:05.369Z,-3.56
2023-02-09T00:31:02.279Z,-3.56
2023-02-09T00:46:04.279Z,-3.56
2023-02-09T01:00:01.192Z,-3.5
2023-02-09T01:16:03.540Z,-3.56
2023-02-09T01:31:05.271Z,-3.61
2023-02-09T01:46:02.460Z,-3.67
2023-02-09T02:00:04.257Z,-3.78
2023-02-09T02:16:01.523Z,-3.78
2023-02-09T02:31:03.704Z,-3.89
2023-02-09T02:46:00.647Z,-3.94
2023-02-09T03:00:02.518Z,-4
2023-02-09T03:16:04.754Z,-4
2023-02-09T03:31:01.856Z,-4.11
2023-02-09T03:46:03.880Z,-4.17
2023-02-09T04:00:00.560Z,-4.28
2023-02-09T04:16:02.740Z,-4.39
2023-02-09T04:31:04.478Z,-4.39
2023-02-09T04:46:01.630Z,-4.56
2023-02-09T05:00:03.488Z,-4.78
2023-02-09T05:16:00.787Z,-5
2023-02-09T05:31:02.996Z,-5.11
2023-02-09T05:46:08.046Z,-5.17
2023-02-09T06:00:01.915Z,-5.33
2023-02-09T06:16:04.393Z,-5.5
2023-02-09T06:31:01.363Z,-5.89
2023-02-09T06:46:03.479Z,-6.22
2023-02-09T07:00:00.674Z,-6.44
2023-02-09T07:16:03.042Z,-6.61
2023-02-09T07:31:02.520Z,-6.44
2023-02-09T07:46:02.740Z,-6.06
2023-02-09T08:00:03.786Z,-5.5
2023-02-09T08:16:00.920Z,-4.83
2023-02-09T08:31:03.317Z,-4.44
2023-02-09T08:46:05.466Z,-4.06
2023-02-09T09:00:02.569Z,-3.67
2023-02-09T09:16:05.337Z,-3.06
2023-02-09T09:31:01.790Z,-2.89
2023-02-09T09:46:03.979Z,-2.39
2023-02-09T10:00:00.924Z,-1.39
2023-02-09T10:16:03.209Z,-0.78
2023-02-09T10:31:05.402Z,-0.83
2023-02-09T10:46:02.405Z,-0.5
2023-02-09T11:00:04.235Z,-0.17
2023-02-09T11:16:01.298Z,0.11
2023-02-09T11:31:03.756Z,0.17
2023-02-09T11:46:00.578Z,0.33
2023-02-09T12:00:02.345Z,0.83
2023-02-09T12:16:04.650Z,0.89
2023-02-09T12:31:01.704Z,0.83
2023-02-09T12:46:03.394Z,0.83
2023-02-09T13:00:00.389Z,0.89
2023-02-09T13:16:02.969Z,1
2023-02-09T13:31:05.071Z,1.28
2023-02-09T13:46:01.934Z,1
2023-02-09T14:00:03.934Z,1.06
2023-02-09T14:16:01.165Z,0.83
2023-02-09T14:31:03.494Z,0.83
2023-02-09T14:46:00.668Z,0.78
2023-02-09T15:00:02.386Z,0.78
2023-02-09T15:16:01.978Z,0.61
2023-02-09T15:31:01.807Z,0.39
2023-02-09T15:46:03.678Z,0.11
2023-02-09T16:00:00.422Z,-0.17
2023-02-09T16:16:15.057Z,-0.5
2023-02-09T16:31:04.647Z,-0.83
2023-02-09T16:46:04.014Z,-1.22
2023-02-09T17:00:03.820Z,-1.44
2023-02-09T17:16:00.892Z,-1.89
2023-02-09T17:31:02.923Z,-2.5
2023-02-09T17:46:04.767Z,-2.78
2023-02-09T18:00:01.540Z,-3.17
2023-02-09T18:16:03.763Z,-3.5
2023-02-09T18:31:00.894Z,-3.67
2023-02-09T18:46:02.630Z,-4
2023-02-09T19:00:04.409Z,-4.28
2023-02-09T19:16:01.500Z,-4.61
2023-02-09T19:31:03.578Z,-4.83
2023-02-09T19:46:00.378Z,-5.11
2023-02-09T20:00:04.453Z,-5.22
2023-02-09T20:16:04.638Z,-5.44
2023-02-09T20:31:01.582Z,-5.61
2023-02-09T20:46:03.862Z,-5.67
2023-02-09T21:00:00.599Z,-5.56
2023-02-09T21:16:04.111Z,-5.67
2023-02-09T21:31:04.558Z,-5.78
2023-02-09T21:46:01.557Z,-5.89
2023-02-09T22:00:03.411Z,-5.94
2023-02-09T22:16:05.275Z,-5.72
2023-02-09T22:31:02.221Z,-5.83
2023-02-09T22:46:04.448Z,-6.06
2023-02-09T23:00:01.411Z,-6.39
2023-02-09T23:16:03.718Z,-6.67
2023-02-09T23:31:00.742Z,-6.67
2023-02-09T23:46:02.926Z,-6.56
